Chain of Rocks, Missouri
Current Conditions -  °F | °C
As of 4:54 AM on Friday 24 Oct 2014 (Local Time) from KSET Reporting Station
Overcast Overcast  
Wind Chill: 52°   Ceiling: 1800
Heat Index: 52°   Visibility: 10mi
Dew Point: 50°   Wind: 3mph
Humidity: 93%   Direction: 260°W
Pressure: 30.09"   Gusts: NA
Location:  38.9362°N, 90.7728°W
Report Text: KSET 240954Z AUTO 26003KT 10SM SCT013 BKN018 OVC043 11/10 A3009 RMK AO2 SLP188 T01110100 $
Loading
Personal Weather Stations






























Interactive Weather Map
Tropical Storm Tracking
New forecast layout! Learn more

10-Day Weather Forecast

Advertisements
Track Severe Weather on mobile